createdAt,value
2018-09-19T00:00:40.831Z,16.33
2018-09-19T00:03:09.644Z,14.50
2018-09-19T00:05:38.471Z,13.47
2018-09-19T00:08:07.343Z,13.70
2018-09-19T00:10:36.458Z,13.87
2018-09-19T00:13:05.375Z,14.37
2018-09-19T00:15:34.139Z,15.33
2018-09-19T00:18:03.047Z,13.53
2018-09-19T00:20:32.081Z,14.07
2018-09-19T00:23:00.687Z,13.60
2018-09-19T00:25:29.520Z,13.17
2018-09-19T00:27:58.475Z,10.33
2018-09-19T00:30:27.164Z,12.50
2018-09-19T00:32:55.787Z,13.43
2018-09-19T00:35:24.510Z,15.53
2018-09-19T00:37:53.279Z,12.50
2018-09-19T00:40:22.237Z,13.90
2018-09-19T00:42:51.306Z,13.97
2018-09-19T00:45:20.195Z,14.57
2018-09-19T00:47:49.013Z,14.60
2018-09-19T00:50:18.173Z,12.83
2018-09-19T00:52:47.091Z,13.30
2018-09-19T00:55:15.880Z,12.67
2018-09-19T00:57:45.117Z,15.73
2018-09-19T01:00:14.094Z,12.80
2018-09-19T01:02:43.169Z,16.03
2018-09-19T01:05:11.834Z,15.20
2018-09-19T01:07:40.704Z,12.23
2018-09-19T01:10:09.834Z,11.27
2018-09-19T01:12:39.040Z,15.00
2018-09-19T01:15:07.999Z,13.03
2018-09-19T01:17:36.969Z,11.50
2018-09-19T01:20:05.950Z,14.67
2018-09-19T01:22:35.173Z,12.13
2018-09-19T01:25:04.199Z,13.80
2018-09-19T01:27:32.948Z,12.77
2018-09-19T01:30:01.584Z,15.53
2018-09-19T01:32:30.709Z,17.20
2018-09-19T01:34:59.422Z,11.77
2018-09-19T01:37:28.254Z,13.43
2018-09-19T01:39:56.965Z,17.13
2018-09-19T01:42:25.808Z,12.67
2018-09-19T01:44:54.713Z,12.83
2018-09-19T01:47:23.867Z,10.67
2018-09-19T01:49:52.689Z,11.33
2018-09-19T01:52:21.562Z,17.33
2018-09-19T01:54:50.635Z,9.90
2018-09-19T01:57:19.588Z,8.97
2018-09-19T01:59:48.422Z,15.50
2018-09-19T02:02:17.604Z,15.30
2018-09-19T02:04:46.591Z,10.97
2018-09-19T02:07:15.597Z,12.30
2018-09-19T02:09:44.220Z,11.30
2018-09-19T02:12:13.114Z,11.17
2018-09-19T02:14:41.843Z,11.23
2018-09-19T02:17:11.023Z,10.73
2018-09-19T02:19:39.955Z,10.30
2018-09-19T02:22:09.083Z,9.93
2018-09-19T02:24:38.086Z,12.90
2018-09-19T02:27:07.051Z,14.33
2018-09-19T02:29:36.014Z,8.20
2018-09-19T02:32:05.038Z,9.47
2018-09-19T02:34:34.017Z,12.87
2018-09-19T02:37:02.811Z,11.23
2018-09-19T02:39:31.613Z,20.57
2018-09-19T02:42:00.291Z,12.60
2018-09-19T02:44:28.894Z,11.73
2018-09-19T02:46:57.609Z,10.03
2018-09-19T02:49:26.759Z,15.67
2018-09-19T02:51:59.384Z,15.53
2018-09-19T02:54:30.218Z,14.57
2018-09-19T02:56:59.551Z,11.20
2018-09-19T02:59:28.610Z,12.63
2018-09-19T03:01:57.454Z,12.27
2018-09-19T03:04:26.160Z,13.17
2018-09-19T03:06:54.877Z,12.70
2018-09-19T03:09:23.843Z,13.60
2018-09-19T03:11:52.773Z,13.77
2018-09-19T03:14:21.916Z,11.77
2018-09-19T03:19:19.515Z,14.33
2018-09-19T03:24:51.015Z,12.47
2018-09-19T03:27:19.972Z,11.87
2018-09-19T03:29:48.927Z,10.97
2018-09-19T03:32:17.861Z,13.93
2018-09-19T03:34:46.589Z,14.80
2018-09-19T03:37:15.601Z,14.80
2018-09-19T03:39:44.279Z,16.63
2018-09-19T03:42:12.981Z,15.63
2018-09-19T03:44:41.706Z,11.53
2018-09-19T03:47:10.415Z,16.40
2018-09-19T03:49:39.280Z,15.23
2018-09-19T03:52:08.284Z,13.30
2018-09-19T03:54:37.174Z,18.97
2018-09-19T03:57:06.067Z,14.40
2018-09-19T03:59:34.802Z,15.30
2018-09-19T04:02:03.613Z,19.93
2018-09-19T04:04:32.321Z,13.23
2018-09-19T04:07:01.166Z,15.17
2018-09-19T04:09:30.308Z,14.00
2018-09-19T04:11:59.584Z,14.00
2018-09-19T04:14:28.724Z,12.97
2018-09-19T04:16:57.774Z,19.73
2018-09-19T04:19:26.878Z,15.27
2018-09-19T04:21:57.026Z,22.93
2018-09-19T04:24:25.949Z,40.23
2018-09-19T04:26:54.533Z,21.90
2018-09-19T04:29:23.360Z,13.17
2018-09-19T04:31:52.088Z,19.70
2018-09-19T04:34:20.910Z,30.47
2018-09-19T04:36:49.858Z,29.23
2018-09-19T04:39:18.841Z,24.23
2018-09-19T04:41:47.819Z,15.40
2018-09-19T04:44:16.818Z,16.23
2018-09-19T04:46:45.756Z,17.67
2018-09-19T04:49:14.672Z,16.13
2018-09-19T04:51:43.806Z,20.93
2018-09-19T04:54:12.555Z,17.63
2018-09-19T04:56:41.471Z,21.93
2018-09-19T04:59:10.549Z,20.27
2018-09-19T05:01:39.197Z,22.30
2018-09-19T05:04:08.463Z,17.30
2018-09-19T05:06:37.583Z,29.30
2018-09-19T05:09:08.479Z,25.43
2018-09-19T05:11:37.568Z,19.03
2018-09-19T05:14:07.055Z,18.47
2018-09-19T05:16:36.101Z,15.77
2018-09-19T05:19:05.076Z,24.63
2018-09-19T05:21:34.024Z,16.80
2018-09-19T05:24:02.842Z,20.30
2018-09-19T05:26:31.625Z,11.27
2018-09-19T05:29:00.330Z,18.60
2018-09-19T05:31:29.117Z,15.60
2018-09-19T05:33:58.346Z,11.37
2018-09-19T05:36:27.105Z,14.87
2018-09-19T05:38:55.788Z,19.70
2018-09-19T05:41:24.463Z,12.30
2018-09-19T05:43:53.252Z,15.13
2018-09-19T05:46:22.029Z,19.03
2018-09-19T05:48:50.855Z,15.13
2018-09-19T05:51:19.739Z,19.57
2018-09-19T05:53:48.558Z,27.37
2018-09-19T05:56:17.243Z,20.90
2018-09-19T05:58:45.958Z,12.10
2018-09-19T06:01:14.554Z,18.70
2018-09-19T06:03:43.147Z,18.27
2018-09-19T06:06:11.800Z,15.13
2018-09-19T06:08:40.536Z,11.50
2018-09-19T06:11:09.257Z,16.63
2018-09-19T06:13:37.955Z,15.23
2018-09-19T06:16:06.607Z,14.63
2018-09-19T06:18:35.404Z,29.43
2018-09-19T06:21:04.110Z,18.50
2018-09-19T06:23:32.758Z,17.03
2018-09-19T06:26:01.546Z,15.33
2018-09-19T06:28:31.042Z,13.00
2018-09-19T06:30:59.675Z,19.20
2018-09-19T06:33:28.504Z,18.17
2018-09-19T06:35:57.188Z,15.93
2018-09-19T06:38:25.960Z,20.73
2018-09-19T06:40:54.690Z,15.37
2018-09-19T06:43:23.307Z,12.10
2018-09-19T06:45:52.160Z,17.17
2018-09-19T06:48:21.059Z,22.67
2018-09-19T06:50:49.771Z,12.70
2018-09-19T06:53:18.514Z,16.57
2018-09-19T06:55:47.200Z,14.03
2018-09-19T06:58:15.890Z,13.83
2018-09-19T07:00:44.487Z,17.80
2018-09-19T07:03:13.197Z,16.97
2018-09-19T07:05:41.972Z,13.07
2018-09-19T07:08:10.675Z,9.53
2018-09-19T07:10:39.429Z,14.90
2018-09-19T07:13:08.108Z,15.53
2018-09-19T07:15:36.747Z,14.67
2018-09-19T07:18:05.400Z,14.40
2018-09-19T07:20:34.029Z,19.63
2018-09-19T07:23:02.799Z,13.57
2018-09-19T07:25:31.601Z,15.47
2018-09-19T07:28:00.196Z,14.20
2018-09-19T07:30:28.966Z,16.03
2018-09-19T07:32:57.725Z,13.00
2018-09-19T07:35:26.455Z,12.63
2018-09-19T07:37:55.091Z,14.43
2018-09-19T07:40:23.930Z,13.57
2018-09-19T07:42:52.610Z,16.90
2018-09-19T07:45:21.262Z,10.83
2018-09-19T07:47:49.966Z,13.83
2018-09-19T07:50:18.754Z,11.60
2018-09-19T07:52:47.503Z,13.17
2018-09-19T07:55:16.262Z,14.23
2018-09-19T07:57:44.803Z,9.83
2018-09-19T08:00:13.420Z,11.30
2018-09-19T08:02:42.054Z,16.57
2018-09-19T08:05:10.787Z,14.63
2018-09-19T08:07:39.387Z,12.07
2018-09-19T08:10:08.066Z,18.67
2018-09-19T08:12:36.755Z,15.90
2018-09-19T08:15:05.595Z,13.37
2018-09-19T08:17:34.338Z,11.47
2018-09-19T08:20:02.971Z,11.53
2018-09-19T08:22:31.763Z,12.90
2018-09-19T08:25:00.334Z,10.00
2018-09-19T08:27:28.995Z,10.47
2018-09-19T08:29:57.573Z,12.27
2018-09-19T08:32:26.339Z,15.53
2018-09-19T08:34:55.043Z,14.60
2018-09-19T08:37:23.840Z,12.30
2018-09-19T08:39:52.666Z,17.73
2018-09-19T08:42:21.415Z,12.77
2018-09-19T08:44:50.142Z,11.60
2018-09-19T08:47:18.795Z,14.57
2018-09-19T08:49:47.496Z,16.57
2018-09-19T08:52:16.143Z,9.07
2018-09-19T08:54:44.894Z,10.80
2018-09-19T08:57:13.616Z,8.37
2018-09-19T08:59:42.327Z,13.20
2018-09-19T09:02:11.099Z,13.00
2018-09-19T09:04:39.727Z,14.77
2018-09-19T09:07:08.545Z,12.70
2018-09-19T09:09:37.342Z,9.60
2018-09-19T09:12:06.117Z,11.33
2018-09-19T09:14:34.692Z,13.87
2018-09-19T09:17:03.395Z,7.57
2018-09-19T09:19:32.134Z,8.63
2018-09-19T09:22:00.726Z,12.33
2018-09-19T09:24:29.331Z,9.53
2018-09-19T09:26:58.034Z,8.57
2018-09-19T09:29:26.586Z,9.30
2018-09-19T09:31:55.391Z,14.65
2018-09-19T09:34:24.117Z,10.53
2018-09-19T09:36:52.757Z,8.90
2018-09-19T09:39:21.477Z,7.23
2018-09-19T09:41:50.494Z,8.17
2018-09-19T09:44:19.231Z,6.92
2018-09-19T09:46:48.181Z,12.90
2018-09-19T09:49:17.348Z,9.68
2018-09-19T09:51:46.272Z,10.32
2018-09-19T09:54:15.034Z,9.43
2018-09-19T09:56:43.738Z,9.33
2018-09-19T09:59:12.508Z,14.55
2018-09-19T10:01:41.227Z,9.40
2018-09-19T10:04:10.224Z,8.78
2018-09-19T10:06:38.803Z,6.12
2018-09-19T10:09:08.509Z,8.15
2018-09-19T10:11:37.323Z,10.00
2018-09-19T10:14:06.195Z,9.43
2018-09-19T10:16:35.037Z,8.73
2018-09-19T10:19:04.178Z,19.80
2018-09-19T10:21:33.109Z,6.60
2018-09-19T10:24:01.822Z,9.55
2018-09-19T10:26:30.675Z,8.60
2018-09-19T10:28:59.559Z,10.28
2018-09-19T10:31:28.215Z,10.00
2018-09-19T10:33:56.832Z,8.55
2018-09-19T10:36:25.500Z,7.47
2018-09-19T10:38:54.432Z,6.17
2018-09-19T10:41:23.319Z,10.50
2018-09-19T10:43:52.430Z,11.45
2018-09-19T10:46:21.267Z,10.20
2018-09-19T10:48:50.083Z,10.93
2018-09-19T10:51:19.045Z,7.62
2018-09-19T10:53:47.753Z,8.28
2018-09-19T10:56:16.521Z,12.45
2018-09-19T10:58:45.296Z,18.48
2018-09-19T11:01:14.352Z,11.83
2018-09-19T11:03:43.490Z,8.95
2018-09-19T11:06:12.407Z,5.95
2018-09-19T11:08:41.457Z,5.95
2018-09-19T11:11:10.703Z,5.72
2018-09-19T11:13:39.605Z,9.03
2018-09-19T11:16:08.642Z,8.53
2018-09-19T11:18:37.659Z,6.97
2018-09-19T11:21:06.868Z,7.90
2018-09-19T11:23:35.625Z,9.88
2018-09-19T11:26:04.275Z,7.72
2018-09-19T11:28:33.163Z,8.95
2018-09-19T11:31:01.814Z,13.98
2018-09-19T11:33:30.546Z,8.30
2018-09-19T11:35:59.467Z,7.60
2018-09-19T11:38:28.369Z,8.80
2018-09-19T11:40:57.115Z,8.45
2018-09-19T11:43:25.924Z,7.45
2018-09-19T11:45:55.071Z,6.40
2018-09-19T11:48:24.059Z,5.83
2018-09-19T11:50:53.141Z,9.75
2018-09-19T11:53:27.135Z,9.78
2018-09-19T11:55:56.629Z,14.07
2018-09-19T11:58:25.421Z,7.30
2018-09-19T12:00:54.205Z,9.23
2018-09-19T12:03:23.133Z,6.47
2018-09-19T12:05:51.948Z,5.37
2018-09-19T12:08:21.359Z,5.87
2018-09-19T12:10:50.591Z,11.00
2018-09-19T12:13:19.505Z,8.75
2018-09-19T12:15:48.270Z,13.93
2018-09-19T12:18:17.390Z,6.37
2018-09-19T12:20:46.251Z,9.48
2018-09-19T12:23:14.838Z,9.98
2018-09-19T12:25:43.438Z,12.82
2018-09-19T12:28:12.539Z,8.80
2018-09-19T12:30:41.439Z,6.10
2018-09-19T12:33:10.094Z,10.78
2018-09-19T12:35:38.891Z,7.37
2018-09-19T12:38:07.987Z,3.85
2018-09-19T12:40:37.076Z,6.20
2018-09-19T12:43:06.230Z,15.28
2018-09-19T12:45:35.030Z,10.05
2018-09-19T12:48:03.870Z,11.95
2018-09-19T12:50:32.691Z,5.87
2018-09-19T12:53:01.481Z,5.60
2018-09-19T12:55:31.282Z,9.43
2018-09-19T12:58:00.207Z,4.58
2018-09-19T13:00:28.942Z,12.07
2018-09-19T13:02:57.975Z,7.00
2018-09-19T13:05:27.807Z,7.22
2018-09-19T13:07:56.644Z,5.95
2018-09-19T13:10:25.612Z,9.58
2018-09-19T13:12:54.633Z,9.65
2018-09-19T13:15:23.542Z,4.22
2018-09-19T13:17:52.207Z,5.22
2018-09-19T13:20:21.111Z,7.40
2018-09-19T13:22:49.782Z,5.95
2018-09-19T13:25:18.494Z,4.25
2018-09-19T13:27:47.631Z,8.10
2018-09-19T13:30:16.463Z,4.70
2018-09-19T13:32:45.503Z,6.87
2018-09-19T13:35:14.563Z,7.03
2018-09-19T13:37:43.552Z,4.70
2018-09-19T13:40:12.507Z,6.58
2018-09-19T13:42:41.567Z,7.12
2018-09-19T13:45:10.726Z,11.97
2018-09-19T13:47:39.579Z,6.95
2018-09-19T13:52:14.878Z,8.48
2018-09-19T13:54:43.554Z,9.15
2018-09-19T13:57:12.435Z,7.28
2018-09-19T13:59:41.506Z,5.17
2018-09-19T14:02:10.753Z,10.72
2018-09-19T14:04:40.071Z,5.20
2018-09-19T14:07:08.943Z,10.30
2018-09-19T14:09:37.771Z,7.45
2018-09-19T14:12:06.279Z,10.68
2018-09-19T14:14:35.503Z,6.45
2018-09-19T14:17:04.515Z,7.40
2018-09-19T14:19:33.351Z,7.33
2018-09-19T14:22:02.109Z,7.15
2018-09-19T14:24:31.147Z,4.47
2018-09-19T14:26:59.771Z,4.22
2018-09-19T14:29:28.978Z,4.37
2018-09-19T14:31:58.174Z,15.15
2018-09-19T14:34:27.107Z,14.73
2018-09-19T14:36:56.229Z,5.03
2018-09-19T14:39:25.121Z,7.05
2018-09-19T14:41:53.908Z,10.23
2018-09-19T14:44:23.068Z,8.03
2018-09-19T14:46:51.758Z,9.28
2018-09-19T14:49:20.437Z,11.08
2018-09-19T14:51:49.164Z,7.47
2018-09-19T14:54:18.122Z,9.95
2018-09-19T14:56:47.166Z,7.37
2018-09-19T14:59:16.473Z,10.30
2018-09-19T15:01:45.495Z,8.60
2018-09-19T15:04:14.394Z,6.03
2018-09-19T15:06:43.331Z,4.35
2018-09-19T15:09:12.549Z,10.15
2018-09-19T15:11:41.594Z,14.10
2018-09-19T15:14:10.538Z,10.13
2018-09-19T15:16:39.193Z,20.37
2018-09-19T15:19:07.891Z,5.85
2018-09-19T15:21:36.487Z,11.83
2018-09-19T15:24:05.263Z,6.28
2018-09-19T15:26:34.152Z,5.40
2018-09-19T15:29:02.915Z,7.47
2018-09-19T15:31:31.789Z,6.42
2018-09-19T15:34:00.731Z,7.17
2018-09-19T15:36:29.870Z,9.55
2018-09-19T15:38:58.926Z,3.42
2018-09-19T15:41:27.880Z,7.28
2018-09-19T15:43:56.982Z,5.85
2018-09-19T15:46:25.668Z,6.00
2018-09-19T15:48:54.318Z,7.35
2018-09-19T15:51:22.933Z,4.47
2018-09-19T15:53:51.731Z,4.55
2018-09-19T15:56:20.925Z,12.50
2018-09-19T15:58:49.786Z,5.97
2018-09-19T16:01:18.718Z,13.30
2018-09-19T16:03:47.437Z,7.70
2018-09-19T16:06:16.351Z,5.28
2018-09-19T16:08:45.503Z,8.05
2018-09-19T16:11:14.779Z,7.90
2018-09-19T16:13:43.788Z,11.28
2018-09-19T16:16:12.476Z,5.10
2018-09-19T16:18:41.115Z,8.93
2018-09-19T16:21:10.269Z,9.38
2018-09-19T16:23:39.250Z,5.40
2018-09-19T16:26:08.265Z,7.08
2018-09-19T16:28:37.666Z,7.17
2018-09-19T16:31:07.057Z,9.80
2018-09-19T16:33:36.068Z,5.58
2018-09-19T16:36:05.138Z,6.35
2018-09-19T16:38:34.035Z,7.90
2018-09-19T16:41:02.814Z,6.37
2018-09-19T16:43:32.065Z,9.18
2018-09-19T16:46:00.835Z,10.25
2018-09-19T16:48:29.637Z,7.92
2018-09-19T16:50:58.610Z,7.10
2018-09-19T16:53:27.879Z,10.58
2018-09-19T16:55:57.228Z,6.77
2018-09-19T16:58:26.349Z,6.97
2018-09-19T17:00:55.512Z,4.30
2018-09-19T17:03:24.400Z,9.40
2018-09-19T17:05:53.320Z,10.77
2018-09-19T17:08:22.001Z,13.07
2018-09-19T17:10:50.864Z,12.00
2018-09-19T17:13:19.740Z,7.07
2018-09-19T17:15:48.442Z,16.50
2018-09-19T17:18:17.088Z,18.63
2018-09-19T17:20:46.033Z,16.27
2018-09-19T17:23:14.923Z,17.00
2018-09-19T17:25:43.832Z,18.40
2018-09-19T17:28:12.951Z,12.93
2018-09-19T17:30:42.204Z,9.37
2018-09-19T17:33:11.498Z,14.53
2018-09-19T17:35:40.592Z,10.60
2018-09-19T17:38:09.930Z,8.37
2018-09-19T17:40:39.167Z,9.83
2018-09-19T17:43:08.011Z,6.33
2018-09-19T17:45:36.684Z,9.80
2018-09-19T17:48:05.395Z,14.73
2018-09-19T17:50:34.407Z,12.63
2018-09-19T17:53:03.218Z,7.87
2018-09-19T17:55:32.170Z,9.07
2018-09-19T17:58:01.291Z,10.60
2018-09-19T18:00:30.223Z,8.70
2018-09-19T18:02:59.308Z,16.07
2018-09-19T18:05:28.214Z,11.33
2018-09-19T18:07:57.283Z,9.30
2018-09-19T18:10:26.387Z,11.87
2018-09-19T18:12:55.145Z,17.17
2018-09-19T18:15:23.775Z,11.07
2018-09-19T18:17:52.525Z,10.70
2018-09-19T18:20:21.378Z,12.97
2018-09-19T18:22:50.238Z,10.60
2018-09-19T18:25:19.107Z,12.33
2018-09-19T18:27:48.064Z,11.63
2018-09-19T18:30:17.215Z,9.77
2018-09-19T18:32:45.925Z,13.20
2018-09-19T18:35:14.892Z,8.60
2018-09-19T18:37:43.802Z,16.20
2018-09-19T18:40:12.621Z,9.60
2018-09-19T18:42:41.398Z,11.03
2018-09-19T18:45:10.072Z,11.27
2018-09-19T18:47:38.891Z,10.60
2018-09-19T18:50:07.733Z,8.03
2018-09-19T18:52:36.362Z,8.07
2018-09-19T18:55:05.692Z,9.57
2018-09-19T18:57:34.447Z,8.30
2018-09-19T19:00:03.478Z,7.40
2018-09-19T19:02:32.587Z,7.50
2018-09-19T19:05:01.342Z,6.87
2018-09-19T19:07:30.319Z,12.23
2018-09-19T19:09:59.043Z,13.90
2018-09-19T19:12:28.039Z,7.23
2018-09-19T19:14:57.413Z,13.03
2018-09-19T19:17:26.526Z,7.77
2018-09-19T19:19:55.539Z,7.57
2018-09-19T19:22:24.254Z,9.20
2018-09-19T19:24:53.100Z,5.70
2018-09-19T19:27:22.275Z,9.90
2018-09-19T19:29:51.213Z,6.90
2018-09-19T19:32:20.129Z,8.13
2018-09-19T19:34:48.923Z,7.20
2018-09-19T19:37:17.822Z,8.70
2018-09-19T19:39:46.793Z,8.90
2018-09-19T19:42:15.434Z,8.90
2018-09-19T19:44:44.142Z,15.97
2018-09-19T19:47:13.123Z,13.70
2018-09-19T19:49:42.158Z,9.70
2018-09-19T19:52:11.254Z,6.07
2018-09-19T19:54:40.269Z,5.63
2018-09-19T19:57:09.379Z,6.30
2018-09-19T19:59:38.539Z,12.67
2018-09-19T20:02:07.463Z,13.90
2018-09-19T20:04:36.109Z,11.60
2018-09-19T20:07:05.286Z,7.70
2018-09-19T20:09:34.325Z,7.33
2018-09-19T20:12:03.030Z,5.00
2018-09-19T20:14:31.642Z,8.03
2018-09-19T20:17:00.343Z,6.53
2018-09-19T20:19:29.234Z,5.13
2018-09-19T20:21:58.182Z,7.33
2018-09-19T20:24:27.158Z,8.00
2018-09-19T20:26:56.005Z,6.87
2018-09-19T20:29:24.999Z,11.90
2018-09-19T20:31:54.011Z,7.57
2018-09-19T20:34:23.024Z,8.87
2018-09-19T20:36:51.882Z,12.40
2018-09-19T20:39:20.455Z,9.97
2018-09-19T20:41:49.085Z,12.60
2018-09-19T20:44:17.827Z,12.00
2018-09-19T20:46:46.623Z,9.07
2018-09-19T20:49:15.438Z,12.70
2018-09-19T20:51:44.266Z,9.93
2018-09-19T20:54:13.552Z,7.23
2018-09-19T20:56:42.814Z,7.50
2018-09-19T20:59:11.674Z,8.43
2018-09-19T21:01:40.907Z,7.87
2018-09-19T21:04:09.638Z,6.47
2018-09-19T21:06:38.575Z,11.20
2018-09-19T21:09:07.495Z,8.43
2018-09-19T21:11:36.336Z,7.00
2018-09-19T21:14:05.050Z,8.53
2018-09-19T21:16:33.930Z,9.37
2018-09-19T21:19:02.634Z,8.53
2018-09-19T21:21:31.781Z,7.50
2018-09-19T21:24:00.690Z,9.77
2018-09-19T21:26:29.505Z,8.40
2018-09-19T21:28:58.630Z,6.30
2018-09-19T21:31:27.616Z,7.43
2018-09-19T21:33:57.411Z,7.70
2018-09-19T21:36:26.281Z,10.13
2018-09-19T21:38:54.912Z,7.30
2018-09-19T21:41:23.591Z,10.53
2018-09-19T21:43:52.427Z,8.20
2018-09-19T21:46:21.496Z,10.30
2018-09-19T21:48:50.278Z,9.47
2018-09-19T21:51:19.242Z,8.10
2018-09-19T21:53:48.010Z,10.07
2018-09-19T21:56:16.847Z,8.13
2018-09-19T21:58:45.813Z,10.33
2018-09-19T22:01:14.781Z,11.23
2018-09-19T22:03:43.634Z,8.33
2018-09-19T22:06:12.510Z,9.97
2018-09-19T22:08:41.287Z,7.97
2018-09-19T22:11:09.943Z,6.80
2018-09-19T22:13:38.606Z,7.67
2018-09-19T22:16:07.301Z,8.60
2018-09-19T22:18:36.490Z,12.33
2018-09-19T22:21:05.473Z,7.40
2018-09-19T22:23:34.428Z,15.33
2018-09-19T22:26:03.269Z,177.07
2018-09-19T22:28:32.318Z,467.80
2018-09-19T22:31:01.199Z,1057.97
2018-09-19T22:33:29.888Z,783.30
2018-09-19T22:35:58.673Z,41.33
2018-09-19T22:38:27.734Z,104.03
2018-09-19T22:40:56.574Z,284.77
2018-09-19T22:43:25.392Z,32.27
2018-09-19T22:45:54.259Z,14.03
2018-09-19T22:48:23.181Z,13.97
2018-09-19T22:50:52.188Z,80.57
2018-09-19T22:53:21.094Z,27.07
2018-09-19T22:55:49.853Z,68.07
2018-09-19T22:58:18.839Z,73.93
2018-09-19T23:00:48.081Z,13.77
2018-09-19T23:03:16.951Z,47.67
2018-09-19T23:05:45.859Z,12.93
2018-09-19T23:08:14.719Z,18.63
2018-09-19T23:10:43.375Z,24.67
2018-09-19T23:13:12.127Z,22.83
2018-09-19T23:15:41.159Z,31.97
2018-09-19T23:18:10.490Z,15.63
2018-09-19T23:20:39.654Z,10.97
2018-09-19T23:23:08.815Z,8.73
2018-09-19T23:25:37.930Z,8.70
2018-09-19T23:28:06.814Z,15.70
2018-09-19T23:30:35.660Z,15.50
2018-09-19T23:33:04.606Z,20.47
2018-09-19T23:35:33.474Z,9.93
2018-09-19T23:38:02.401Z,9.87
2018-09-19T23:40:31.214Z,10.03
2018-09-19T23:42:59.858Z,7.27
2018-09-19T23:45:28.705Z,11.73
2018-09-19T23:47:57.804Z,28.30
2018-09-19T23:50:26.904Z,11.13
2018-09-19T23:52:55.728Z,11.27
2018-09-19T23:55:24.580Z,12.87
2018-09-19T23:57:53.493Z,6.97
